createdAt,value
2022-10-11T00:00:00.292Z,8.9
2022-10-11T00:05:00.222Z,8.9
2022-10-11T00:10:00.256Z,8.8
2022-10-11T00:15:00.232Z,8.8
2022-10-11T00:20:00.254Z,8.7
2022-10-11T00:25:00.255Z,8.7
2022-10-11T00:30:00.265Z,8.6
2022-10-11T00:35:00.213Z,8.6
2022-10-11T00:40:00.268Z,8.6
2022-10-11T00:45:00.248Z,8.5
2022-10-11T00:50:00.228Z,8.5
2022-10-11T00:55:00.225Z,8.4
2022-10-11T01:00:00.253Z,8.4
2022-10-11T01:05:25.114Z,8.4
2022-10-11T01:10:00.228Z,8.3
2022-10-11T01:15:00.246Z,8.3
2022-10-11T01:20:00.287Z,8.2
2022-10-11T01:25:00.243Z,8.2
2022-10-11T01:30:00.267Z,8.2
2022-10-11T01:35:00.251Z,8.1
2022-10-11T01:40:00.257Z,8
2022-10-11T01:45:00.245Z,8
2022-10-11T01:50:00.284Z,8
2022-10-11T01:55:10.163Z,8
2022-10-11T02:00:00.281Z,7.9
2022-10-11T02:05:00.240Z,7.9
2022-10-11T02:10:00.268Z,7.8
2022-10-11T02:15:00.209Z,7.8
2022-10-11T02:20:00.266Z,7.8
2022-10-11T02:25:00.235Z,7.7
2022-10-11T02:30:00.282Z,7.7
2022-10-11T02:35:00.233Z,7.6
2022-10-11T02:40:00.279Z,7.6
2022-10-11T02:45:00.235Z,7.6
2022-10-11T02:50:00.293Z,7.6
2022-10-11T02:55:00.225Z,7.6
2022-10-11T03:00:00.299Z,7.5
2022-10-11T03:05:00.273Z,7.4
2022-10-11T03:10:00.370Z,7.4
2022-10-11T03:15:00.240Z,7.4
2022-10-11T03:20:00.294Z,7.3
2022-10-11T03:25:04.093Z,7.3
2022-10-11T03:30:00.328Z,7.3
2022-10-11T03:35:00.254Z,7.2
2022-10-11T03:40:00.271Z,7.2
2022-10-11T03:45:00.267Z,7.2
2022-10-11T03:50:00.376Z,7.1
2022-10-11T03:55:00.259Z,7.1
2022-10-11T04:00:00.291Z,7.1
2022-10-11T04:05:00.271Z,7
2022-10-11T04:10:00.264Z,7
2022-10-11T04:15:00.263Z,7
2022-10-11T04:20:00.274Z,6.9
2022-10-11T04:25:00.293Z,6.9
2022-10-11T04:30:00.339Z,6.8
2022-10-11T04:35:00.244Z,6.8
2022-10-11T04:40:00.301Z,6.7
2022-10-11T04:45:00.256Z,6.7
2022-10-11T04:50:00.315Z,6.7
2022-10-11T04:55:00.246Z,6.7
2022-10-11T05:00:00.281Z,6.6
2022-10-11T05:05:00.250Z,6.5
2022-10-11T05:10:00.287Z,6.5
2022-10-11T05:15:00.255Z,6.5
2022-10-11T05:20:00.309Z,6.4
2022-10-11T05:25:00.266Z,6.4
2022-10-11T05:30:00.298Z,6.3
2022-10-11T05:35:00.252Z,6.3
2022-10-11T05:40:00.267Z,6.2
2022-10-11T05:45:00.259Z,6.2
2022-10-11T05:50:00.263Z,6.2
2022-10-11T05:55:00.256Z,6.2
2022-10-11T06:00:00.302Z,6.2
2022-10-11T06:05:00.451Z,6.1
2022-10-11T06:10:00.289Z,6.1
2022-10-11T06:15:00.243Z,6.1
2022-10-11T06:20:00.285Z,6.1
2022-10-11T06:25:00.272Z,6
2022-10-11T06:30:00.328Z,6.1
2022-10-11T06:35:00.243Z,6
2022-10-11T06:40:00.282Z,6.1
2022-10-11T06:45:00.322Z,6.1
2022-10-11T06:50:00.285Z,6.1
2022-10-11T06:55:00.244Z,6.2
2022-10-11T07:00:00.321Z,6.2
2022-10-11T07:05:00.290Z,6.2
2022-10-11T07:10:00.304Z,6.3
2022-10-11T07:15:00.272Z,6.4
2022-10-11T07:20:00.298Z,6.4
2022-10-11T07:25:00.379Z,6.5
2022-10-11T07:30:00.292Z,6.6
2022-10-11T07:35:00.293Z,6.7
2022-10-11T07:40:00.311Z,6.7
2022-10-11T07:45:00.274Z,6.8
2022-10-11T07:50:00.300Z,6.9
2022-10-11T07:55:00.231Z,7
2022-10-11T08:00:00.298Z,7.1
2022-10-11T08:05:00.260Z,7.2
2022-10-11T08:10:00.277Z,7.4
2022-10-11T08:15:00.268Z,7.5
2022-10-11T08:20:00.282Z,7.6
2022-10-11T08:25:00.256Z,7.8
2022-10-11T08:30:00.311Z,7.9
2022-10-11T08:35:00.269Z,8
2022-10-11T08:40:00.295Z,8.1
2022-10-11T08:45:10.485Z,8.3
2022-10-11T08:50:00.271Z,8.4
2022-10-11T08:55:00.262Z,8.5
2022-10-11T09:00:00.292Z,8.7
2022-10-11T09:05:00.281Z,8.7
2022-10-11T09:10:00.271Z,8.9
2022-10-11T09:15:00.217Z,9
2022-10-11T09:20:00.287Z,9.1
2022-10-11T09:25:00.235Z,9.3
2022-10-11T09:30:00.341Z,9.3
2022-10-11T09:35:00.250Z,9.5
2022-10-11T09:40:00.292Z,9.7
2022-10-11T09:45:00.253Z,9.8
2022-10-11T09:50:00.295Z,9.9
2022-10-11T09:55:00.304Z,10.1
2022-10-11T10:00:00.329Z,10.2
2022-10-11T10:05:00.272Z,10.4
2022-10-11T10:10:00.295Z,10.5
2022-10-11T10:15:00.246Z,10.7
2022-10-11T10:20:00.280Z,10.8
2022-10-11T10:25:00.278Z,11
2022-10-11T10:30:00.332Z,11.1
2022-10-11T10:35:00.271Z,11.2
2022-10-11T10:40:00.284Z,11.4
2022-10-11T10:45:00.287Z,11.5
2022-10-11T10:50:00.341Z,11.7
2022-10-11T10:55:00.254Z,11.8
2022-10-11T11:00:00.342Z,11.9
2022-10-11T11:10:00.281Z,12
2022-10-11T11:15:00.263Z,12.2
2022-10-11T11:20:00.314Z,12.2
2022-10-11T11:25:00.252Z,12.4
2022-10-11T11:30:00.341Z,12.5
2022-10-11T11:35:00.261Z,12.6
2022-10-11T11:40:00.277Z,12.7
2022-10-11T11:45:00.267Z,12.7
2022-10-11T11:50:00.311Z,12.7
2022-10-11T11:55:03.961Z,12.6
2022-10-11T12:00:00.329Z,12.6
2022-10-11T12:05:00.241Z,12.6
2022-10-11T12:10:00.307Z,12.7
2022-10-11T12:15:00.224Z,12.8
2022-10-11T12:20:00.310Z,12.8
2022-10-11T12:25:00.279Z,12.8
2022-10-11T12:30:00.331Z,12.8
2022-10-11T12:35:00.276Z,12.9
2022-10-11T12:40:00.292Z,13
2022-10-11T12:45:00.262Z,13
2022-10-11T12:50:00.281Z,13.1
2022-10-11T12:55:00.249Z,13.2
2022-10-11T13:00:00.286Z,13.2
2022-10-11T13:05:00.241Z,13.4
2022-10-11T13:10:00.303Z,13.4
2022-10-11T13:15:00.248Z,13.5
2022-10-11T13:20:00.298Z,13.6
2022-10-11T13:25:00.288Z,13.8
2022-10-11T13:30:00.338Z,13.8
2022-10-11T13:35:00.283Z,13.9
2022-10-11T13:40:00.276Z,13.9
2022-10-11T13:45:00.263Z,13.8
2022-10-11T13:50:00.276Z,13.8
2022-10-11T13:55:00.293Z,13.8
2022-10-11T14:00:00.291Z,13.8
2022-10-11T14:05:00.266Z,13.7
2022-10-11T14:10:00.279Z,13.6
2022-10-11T14:15:00.253Z,13.5
2022-10-11T14:20:05.043Z,13.5
2022-10-11T14:25:00.275Z,13.5
2022-10-11T14:30:24.472Z,13.6
2022-10-11T14:35:00.244Z,13.6
2022-10-11T14:40:00.279Z,13.7
2022-10-11T14:45:00.248Z,13.8
2022-10-11T14:50:00.340Z,13.8
2022-10-11T14:55:00.285Z,13.8
2022-10-11T15:00:00.314Z,13.9
2022-10-11T15:05:00.257Z,13.9
2022-10-11T15:10:00.295Z,13.9
2022-10-11T15:15:00.240Z,13.9
2022-10-11T15:20:00.294Z,13.9
2022-10-11T15:25:00.282Z,13.9
2022-10-11T15:30:00.332Z,13.9
2022-10-11T15:35:00.272Z,14
2022-10-11T15:40:00.384Z,13.9
2022-10-11T15:45:00.285Z,13.9
2022-10-11T15:50:00.394Z,13.9
2022-10-11T15:55:00.268Z,13.8
2022-10-11T16:00:00.508Z,13.8
2022-10-11T16:05:00.287Z,13.7
2022-10-11T16:10:00.310Z,13.6
2022-10-11T16:15:00.263Z,13.5
2022-10-11T16:20:00.285Z,13.4
2022-10-11T16:25:00.296Z,13.3
2022-10-11T16:30:00.349Z,13.2
2022-10-11T16:35:00.264Z,13.1
2022-10-11T16:40:00.305Z,13
2022-10-11T16:45:00.261Z,12.8
2022-10-11T16:50:05.293Z,12.7
2022-10-11T16:55:00.244Z,12.6
2022-10-11T17:00:00.311Z,12.4
2022-10-11T17:05:00.263Z,12.2
2022-10-11T17:10:00.304Z,12.1
2022-10-11T17:15:00.250Z,11.9
2022-10-11T17:20:00.266Z,11.8
2022-10-11T17:25:00.258Z,11.7
2022-10-11T17:30:00.303Z,11.5
2022-10-11T17:35:00.391Z,11.4
2022-10-11T17:40:00.290Z,11.2
2022-10-11T17:45:00.248Z,11.2
2022-10-11T17:50:00.300Z,11
2022-10-11T17:55:00.255Z,10.9
2022-10-11T18:00:00.275Z,10.8
2022-10-11T18:05:00.273Z,10.6
2022-10-11T18:10:00.285Z,10.5
2022-10-11T18:15:00.256Z,10.4
2022-10-11T18:20:00.280Z,10.3
2022-10-11T18:25:00.316Z,10.2
2022-10-11T18:30:00.337Z,10.1
2022-10-11T18:35:00.239Z,9.9
2022-10-11T18:40:00.273Z,9.8
2022-10-11T18:45:00.252Z,9.8
2022-10-11T18:50:00.276Z,9.7
2022-10-11T18:55:00.258Z,9.6
2022-10-11T19:00:07.314Z,9.5
2022-10-11T19:05:00.268Z,9.4
2022-10-11T19:10:00.296Z,9.3
2022-10-11T19:15:00.295Z,9.2
2022-10-11T19:20:00.323Z,9.1
2022-10-11T19:25:00.260Z,9.1
2022-10-11T19:30:00.337Z,9
2022-10-11T19:35:05.224Z,8.9
2022-10-11T19:40:00.292Z,8.9
2022-10-11T19:45:00.268Z,8.8
2022-10-11T19:50:05.291Z,8.7
2022-10-11T19:55:05.207Z,8.7
2022-10-11T20:00:00.317Z,8.6
2022-10-11T20:05:00.259Z,8.5
2022-10-11T20:10:00.275Z,8.4
2022-10-11T20:15:00.280Z,8.4
2022-10-11T20:20:00.286Z,8.3
2022-10-11T20:25:00.247Z,8.2
2022-10-11T20:30:00.323Z,8.2
2022-10-11T20:35:00.247Z,8.1
2022-10-11T20:40:00.283Z,8
2022-10-11T20:45:00.239Z,8
2022-10-11T20:50:00.315Z,8
2022-10-11T20:55:00.262Z,7.9
2022-10-11T21:00:00.256Z,7.8
2022-10-11T21:05:00.244Z,7.8
2022-10-11T21:10:00.258Z,7.7
2022-10-11T21:15:00.232Z,7.6
2022-10-11T21:20:00.296Z,7.6
2022-10-11T21:25:00.236Z,7.6
2022-10-11T21:30:00.303Z,7.5
2022-10-11T21:35:00.248Z,7.5
2022-10-11T21:40:00.240Z,7.4
2022-10-11T21:45:00.198Z,7.4
2022-10-11T21:50:00.262Z,7.3
2022-10-11T21:55:00.232Z,7.3
2022-10-11T22:00:00.312Z,7.2
2022-10-11T22:05:00.243Z,7.2
2022-10-11T22:10:00.275Z,7.1
2022-10-11T22:15:00.210Z,7.1
2022-10-11T22:20:00.254Z,7.1
2022-10-11T22:25:00.242Z,7
2022-10-11T22:30:00.279Z,7
2022-10-11T22:35:00.194Z,6.9
2022-10-11T22:40:00.253Z,6.9
2022-10-11T22:45:00.230Z,6.9
2022-10-11T22:50:00.238Z,6.8
2022-10-11T22:55:00.233Z,6.7
2022-10-11T23:00:00.270Z,6.7
2022-10-11T23:05:00.221Z,6.7
2022-10-11T23:10:00.309Z,6.7
2022-10-11T23:15:00.287Z,6.6
2022-10-11T23:20:00.255Z,6.6
2022-10-11T23:25:00.217Z,6.5
2022-10-11T23:30:00.238Z,6.4
2022-10-11T23:35:00.239Z,6.4
2022-10-11T23:40:00.240Z,6.4
2022-10-11T23:45:00.251Z,6.3
2022-10-11T23:50:00.305Z,6.3
2022-10-11T23:55:00.257Z,6.3
